sensor_id;sensor_type;location;lat;lon;timestamp;P1;durP1;ratioP1;P2;durP2;ratioP2
19111;SDS011;9688;51.906;8.376;2023-11-21T00:01:13;20.97;;;11.60;;
19111;SDS011;9688;51.906;8.376;2023-11-21T00:03:59;21.33;;;11.70;;
19111;SDS011;9688;51.906;8.376;2023-11-21T00:06:45;22.20;;;13.33;;
19111;SDS011;9688;51.906;8.376;2023-11-21T00:09:32;20.13;;;11.93;;
19111;SDS011;9688;51.906;8.376;2023-11-21T00:12:20;23.90;;;12.30;;
19111;SDS011;9688;51.906;8.376;2023-11-21T00:15:19;19.17;;;12.10;;
19111;SDS011;9688;51.906;8.376;2023-11-21T00:18:06;22.63;;;12.67;;
19111;SDS011;9688;51.906;8.376;2023-11-21T00:20:51;20.47;;;12.27;;
19111;SDS011;9688;51.906;8.376;2023-11-21T00:23:37;22.10;;;12.03;;
19111;SDS011;9688;51.906;8.376;2023-11-21T00:26:23;25.70;;;12.33;;
19111;SDS011;9688;51.906;8.376;2023-11-21T00:29:09;23.23;;;12.43;;
19111;SDS011;9688;51.906;8.376;2023-11-21T00:31:56;24.57;;;12.43;;
19111;SDS011;9688;51.906;8.376;2023-11-21T00:34:42;22.43;;;12.53;;
19111;SDS011;9688;51.906;8.376;2023-11-21T00:37:28;22.00;;;12.93;;
19111;SDS011;9688;51.906;8.376;2023-11-21T00:40:16;25.40;;;12.50;;
19111;SDS011;9688;51.906;8.376;2023-11-21T00:43:03;21.63;;;12.33;;
19111;SDS011;9688;51.906;8.376;2023-11-21T00:45:49;26.33;;;13.63;;
19111;SDS011;9688;51.906;8.376;2023-11-21T00:48:37;22.50;;;12.67;;
19111;SDS011;9688;51.906;8.376;2023-11-21T00:51:22;24.03;;;13.33;;
19111;SDS011;9688;51.906;8.376;2023-11-21T00:54:08;21.27;;;12.43;;
19111;SDS011;9688;51.906;8.376;2023-11-21T00:56:55;27.27;;;13.70;;
19111;SDS011;9688;51.906;8.376;2023-11-21T00:59:40;20.50;;;12.83;;
19111;SDS011;9688;51.906;8.376;2023-11-21T01:02:26;22.77;;;14.50;;
19111;SDS011;9688;51.906;8.376;2023-11-21T01:05:14;22.83;;;13.30;;
19111;SDS011;9688;51.906;8.376;2023-11-21T01:08:00;27.40;;;14.10;;
19111;SDS011;9688;51.906;8.376;2023-11-21T01:10:46;20.77;;;13.87;;
19111;SDS011;9688;51.906;8.376;2023-11-21T01:13:32;24.97;;;13.40;;
19111;SDS011;9688;51.906;8.376;2023-11-21T01:16:18;26.17;;;14.67;;
19111;SDS011;9688;51.906;8.376;2023-11-21T01:19:04;25.27;;;14.50;;
19111;SDS011;9688;51.906;8.376;2023-11-21T01:21:52;23.23;;;13.27;;
19111;SDS011;9688;51.906;8.376;2023-11-21T01:24:38;25.13;;;15.13;;
19111;SDS011;9688;51.906;8.376;2023-11-21T01:27:24;22.50;;;13.80;;
19111;SDS011;9688;51.906;8.376;2023-11-21T01:30:11;26.13;;;13.93;;
19111;SDS011;9688;51.906;8.376;2023-11-21T01:32:58;24.27;;;14.10;;
19111;SDS011;9688;51.906;8.376;2023-11-21T01:35:44;19.87;;;12.03;;
19111;SDS011;9688;51.906;8.376;2023-11-21T01:38:32;20.87;;;12.57;;
19111;SDS011;9688;51.906;8.376;2023-11-21T01:41:18;23.23;;;13.53;;
19111;SDS011;9688;51.906;8.376;2023-11-21T01:44:04;25.13;;;12.57;;
19111;SDS011;9688;51.906;8.376;2023-11-21T01:46:53;23.00;;;12.37;;
19111;SDS011;9688;51.906;8.376;2023-11-21T01:49:42;23.20;;;12.53;;
19111;SDS011;9688;51.906;8.376;2023-11-21T01:52:29;24.87;;;12.37;;
19111;SDS011;9688;51.906;8.376;2023-11-21T01:55:17;26.60;;;13.33;;
19111;SDS011;9688;51.906;8.376;2023-11-21T01:58:03;26.33;;;13.27;;
19111;SDS011;9688;51.906;8.376;2023-11-21T02:00:52;26.77;;;12.83;;
19111;SDS011;9688;51.906;8.376;2023-11-21T02:03:39;25.07;;;14.20;;
19111;SDS011;9688;51.906;8.376;2023-11-21T02:06:24;23.37;;;13.40;;
19111;SDS011;9688;51.906;8.376;2023-11-21T02:09:11;19.40;;;12.37;;
19111;SDS011;9688;51.906;8.376;2023-11-21T02:12:00;20.13;;;12.80;;
19111;SDS011;9688;51.906;8.376;2023-11-21T02:14:46;25.73;;;12.50;;
19111;SDS011;9688;51.906;8.376;2023-11-21T02:17:32;22.57;;;13.27;;
19111;SDS011;9688;51.906;8.376;2023-11-21T02:20:19;25.20;;;14.53;;
19111;SDS011;9688;51.906;8.376;2023-11-21T02:23:08;30.23;;;14.80;;
19111;SDS011;9688;51.906;8.376;2023-11-21T02:25:53;23.20;;;14.50;;
19111;SDS011;9688;51.906;8.376;2023-11-21T02:28:40;27.73;;;15.67;;
19111;SDS011;9688;51.906;8.376;2023-11-21T02:31:26;26.53;;;15.53;;
19111;SDS011;9688;51.906;8.376;2023-11-21T02:34:12;23.93;;;15.13;;
19111;SDS011;9688;51.906;8.376;2023-11-21T02:36:58;28.20;;;15.27;;
19111;SDS011;9688;51.906;8.376;2023-11-21T02:39:46;25.87;;;14.57;;
19111;SDS011;9688;51.906;8.376;2023-11-21T02:42:32;25.63;;;13.83;;
19111;SDS011;9688;51.906;8.376;2023-11-21T02:45:18;31.93;;;17.00;;
19111;SDS011;9688;51.906;8.376;2023-11-21T02:48:05;25.37;;;14.50;;
19111;SDS011;9688;51.906;8.376;2023-11-21T02:50:51;28.03;;;15.33;;
19111;SDS011;9688;51.906;8.376;2023-11-21T02:53:37;26.23;;;13.63;;
19111;SDS011;9688;51.906;8.376;2023-11-21T02:56:25;27.87;;;14.70;;
19111;SDS011;9688;51.906;8.376;2023-11-21T02:59:11;20.07;;;11.50;;
19111;SDS011;9688;51.906;8.376;2023-11-21T03:01:57;21.33;;;11.17;;
19111;SDS011;9688;51.906;8.376;2023-11-21T03:04:43;17.60;;;9.70;;
19111;SDS011;9688;51.906;8.376;2023-11-21T03:07:29;20.17;;;11.10;;
19111;SDS011;9688;51.906;8.376;2023-11-21T03:10:14;17.00;;;11.00;;
19111;SDS011;9688;51.906;8.376;2023-11-21T03:13:02;16.43;;;10.33;;
19111;SDS011;9688;51.906;8.376;2023-11-21T03:15:48;18.07;;;10.83;;
19111;SDS011;9688;51.906;8.376;2023-11-21T03:18:33;17.27;;;10.47;;
19111;SDS011;9688;51.906;8.376;2023-11-21T03:21:20;20.90;;;11.57;;
19111;SDS011;9688;51.906;8.376;2023-11-21T03:24:06;22.17;;;11.77;;
19111;SDS011;9688;51.906;8.376;2023-11-21T03:26:52;21.90;;;12.53;;
19111;SDS011;9688;51.906;8.376;2023-11-21T03:29:40;21.10;;;12.20;;
19111;SDS011;9688;51.906;8.376;2023-11-21T03:32:25;22.37;;;12.73;;
19111;SDS011;9688;51.906;8.376;2023-11-21T03:35:11;22.40;;;13.27;;
19111;SDS011;9688;51.906;8.376;2023-11-21T03:37:57;23.63;;;12.37;;
19111;SDS011;9688;51.906;8.376;2023-11-21T03:40:43;22.77;;;13.47;;
19111;SDS011;9688;51.906;8.376;2023-11-21T03:43:29;24.23;;;13.47;;
19111;SDS011;9688;51.906;8.376;2023-11-21T03:46:16;22.97;;;13.73;;
19111;SDS011;9688;51.906;8.376;2023-11-21T03:49:02;26.77;;;13.27;;
19111;SDS011;9688;51.906;8.376;2023-11-21T03:51:48;24.30;;;13.83;;
19111;SDS011;9688;51.906;8.376;2023-11-21T03:54:34;22.23;;;12.93;;
19111;SDS011;9688;51.906;8.376;2023-11-21T03:57:20;25.13;;;14.70;;
19111;SDS011;9688;51.906;8.376;2023-11-21T04:00:06;23.83;;;13.63;;
19111;SDS011;9688;51.906;8.376;2023-11-21T04:02:55;25.80;;;14.33;;
19111;SDS011;9688;51.906;8.376;2023-11-21T04:05:40;25.27;;;14.70;;
19111;SDS011;9688;51.906;8.376;2023-11-21T04:08:27;26.77;;;14.73;;
19111;SDS011;9688;51.906;8.376;2023-11-21T04:11:18;25.77;;;13.57;;
19111;SDS011;9688;51.906;8.376;2023-11-21T04:14:04;26.03;;;14.77;;
19111;SDS011;9688;51.906;8.376;2023-11-21T04:16:50;27.53;;;15.07;;
19111;SDS011;9688;51.906;8.376;2023-11-21T04:19:37;25.27;;;14.63;;
19111;SDS011;9688;51.906;8.376;2023-11-21T04:22:23;23.50;;;14.23;;
19111;SDS011;9688;51.906;8.376;2023-11-21T04:25:09;25.37;;;13.87;;
19111;SDS011;9688;51.906;8.376;2023-11-21T04:27:55;24.77;;;14.17;;
19111;SDS011;9688;51.906;8.376;2023-11-21T04:30:43;26.67;;;14.93;;
19111;SDS011;9688;51.906;8.376;2023-11-21T04:33:29;30.10;;;15.63;;
19111;SDS011;9688;51.906;8.376;2023-11-21T04:36:16;25.80;;;15.27;;
19111;SDS011;9688;51.906;8.376;2023-11-21T04:39:02;31.07;;;16.87;;
19111;SDS011;9688;51.906;8.376;2023-11-21T04:41:48;33.13;;;15.93;;
19111;SDS011;9688;51.906;8.376;2023-11-21T04:44:34;31.67;;;14.80;;
19111;SDS011;9688;51.906;8.376;2023-11-21T04:47:20;27.63;;;14.27;;
19111;SDS011;9688;51.906;8.376;2023-11-21T04:50:06;24.17;;;13.50;;
19111;SDS011;9688;51.906;8.376;2023-11-21T04:52:53;24.20;;;15.23;;
19111;SDS011;9688;51.906;8.376;2023-11-21T04:55:39;29.03;;;15.30;;
19111;SDS011;9688;51.906;8.376;2023-11-21T04:58:25;29.20;;;15.37;;
19111;SDS011;9688;51.906;8.376;2023-11-21T05:01:10;26.37;;;13.97;;
19111;SDS011;9688;51.906;8.376;2023-11-21T05:03:56;28.37;;;15.07;;
19111;SDS011;9688;51.906;8.376;2023-11-21T05:06:42;26.57;;;14.50;;
19111;SDS011;9688;51.906;8.376;2023-11-21T05:09:29;31.87;;;15.30;;
19111;SDS011;9688;51.906;8.376;2023-11-21T05:12:17;29.57;;;15.10;;
19111;SDS011;9688;51.906;8.376;2023-11-21T05:15:03;27.10;;;14.87;;
19111;SDS011;9688;51.906;8.376;2023-11-21T05:17:53;32.53;;;16.90;;
19111;SDS011;9688;51.906;8.376;2023-11-21T05:20:39;35.57;;;16.23;;
19111;SDS011;9688;51.906;8.376;2023-11-21T05:23:26;25.93;;;14.40;;
19111;SDS011;9688;51.906;8.376;2023-11-21T05:26:13;33.97;;;15.17;;
19111;SDS011;9688;51.906;8.376;2023-11-21T05:28:59;26.93;;;15.00;;
19111;SDS011;9688;51.906;8.376;2023-11-21T05:31:45;28.30;;;13.93;;
19111;SDS011;9688;51.906;8.376;2023-11-21T05:34:31;27.70;;;14.07;;
19111;SDS011;9688;51.906;8.376;2023-11-21T05:37:17;34.17;;;16.53;;
19111;SDS011;9688;51.906;8.376;2023-11-21T05:40:03;27.97;;;13.77;;
19111;SDS011;9688;51.906;8.376;2023-11-21T05:42:51;24.30;;;14.40;;
19111;SDS011;9688;51.906;8.376;2023-11-21T05:45:37;27.40;;;13.97;;
19111;SDS011;9688;51.906;8.376;2023-11-21T05:48:22;31.70;;;16.13;;
19111;SDS011;9688;51.906;8.376;2023-11-21T05:51:09;30.67;;;15.47;;
19111;SDS011;9688;51.906;8.376;2023-11-21T05:53:56;32.03;;;14.87;;
19111;SDS011;9688;51.906;8.376;2023-11-21T05:56:42;27.67;;;14.70;;
19111;SDS011;9688;51.906;8.376;2023-11-21T05:59:29;28.50;;;15.33;;
19111;SDS011;9688;51.906;8.376;2023-11-21T06:02:14;24.93;;;14.53;;
19111;SDS011;9688;51.906;8.376;2023-11-21T06:05:00;25.50;;;14.90;;
19111;SDS011;9688;51.906;8.376;2023-11-21T06:07:48;30.63;;;16.40;;
19111;SDS011;9688;51.906;8.376;2023-11-21T06:10:34;30.00;;;16.63;;
19111;SDS011;9688;51.906;8.376;2023-11-21T06:13:19;29.43;;;14.93;;
19111;SDS011;9688;51.906;8.376;2023-11-21T06:16:10;27.93;;;15.33;;
19111;SDS011;9688;51.906;8.376;2023-11-21T06:18:57;25.77;;;14.63;;
19111;SDS011;9688;51.906;8.376;2023-11-21T06:21:45;22.80;;;13.63;;
19111;SDS011;9688;51.906;8.376;2023-11-21T06:24:31;24.77;;;15.70;;
19111;SDS011;9688;51.906;8.376;2023-11-21T06:27:17;32.07;;;15.90;;
19111;SDS011;9688;51.906;8.376;2023-11-21T06:30:05;25.93;;;14.63;;
19111;SDS011;9688;51.906;8.376;2023-11-21T06:32:55;35.20;;;16.83;;
19111;SDS011;9688;51.906;8.376;2023-11-21T06:35:40;31.63;;;16.90;;
19111;SDS011;9688;51.906;8.376;2023-11-21T06:38:27;33.33;;;16.10;;
19111;SDS011;9688;51.906;8.376;2023-11-21T06:41:14;34.10;;;16.93;;
19111;SDS011;9688;51.906;8.376;2023-11-21T06:44:00;32.50;;;16.20;;
19111;SDS011;9688;51.906;8.376;2023-11-21T06:46:46;33.40;;;19.57;;
19111;SDS011;9688;51.906;8.376;2023-11-21T06:49:34;30.63;;;16.23;;
19111;SDS011;9688;51.906;8.376;2023-11-21T06:52:20;36.17;;;18.13;;
19111;SDS011;9688;51.906;8.376;2023-11-21T06:55:06;32.07;;;16.53;;
19111;SDS011;9688;51.906;8.376;2023-11-21T06:57:54;43.60;;;22.53;;
19111;SDS011;9688;51.906;8.376;2023-11-21T07:00:42;31.63;;;18.03;;
19111;SDS011;9688;51.906;8.376;2023-11-21T07:03:30;40.27;;;19.07;;
19111;SDS011;9688;51.906;8.376;2023-11-21T07:06:18;33.83;;;17.33;;
19111;SDS011;9688;51.906;8.376;2023-11-21T07:09:03;40.37;;;18.63;;
19111;SDS011;9688;51.906;8.376;2023-11-21T07:11:50;32.63;;;17.60;;
19111;SDS011;9688;51.906;8.376;2023-11-21T07:14:38;35.87;;;16.97;;
19111;SDS011;9688;51.906;8.376;2023-11-21T07:17:27;38.20;;;19.23;;
19111;SDS011;9688;51.906;8.376;2023-11-21T07:20:13;34.60;;;19.00;;
19111;SDS011;9688;51.906;8.376;2023-11-21T07:23:02;33.50;;;17.67;;
19111;SDS011;9688;51.906;8.376;2023-11-21T07:25:50;36.67;;;19.03;;
19111;SDS011;9688;51.906;8.376;2023-11-21T07:28:37;35.33;;;17.97;;
19111;SDS011;9688;51.906;8.376;2023-11-21T07:31:22;33.60;;;18.10;;
19111;SDS011;9688;51.906;8.376;2023-11-21T07:34:09;41.13;;;19.83;;
19111;SDS011;9688;51.906;8.376;2023-11-21T07:36:56;36.83;;;17.80;;
19111;SDS011;9688;51.906;8.376;2023-11-21T07:39:43;33.80;;;17.90;;
19111;SDS011;9688;51.906;8.376;2023-11-21T07:42:29;39.17;;;19.50;;
19111;SDS011;9688;51.906;8.376;2023-11-21T07:45:16;35.53;;;19.17;;
19111;SDS011;9688;51.906;8.376;2023-11-21T07:48:02;39.93;;;20.33;;
19111;SDS011;9688;51.906;8.376;2023-11-21T07:50:49;44.90;;;21.50;;
19111;SDS011;9688;51.906;8.376;2023-11-21T07:53:36;48.17;;;20.57;;
19111;SDS011;9688;51.906;8.376;2023-11-21T07:56:23;40.97;;;20.57;;
19111;SDS011;9688;51.906;8.376;2023-11-21T07:59:09;41.00;;;21.50;;
19111;SDS011;9688;51.906;8.376;2023-11-21T08:01:56;53.37;;;24.33;;
19111;SDS011;9688;51.906;8.376;2023-11-21T08:04:42;50.43;;;21.83;;
19111;SDS011;9688;51.906;8.376;2023-11-21T08:07:28;53.93;;;22.53;;
19111;SDS011;9688;51.906;8.376;2023-11-21T08:10:15;60.47;;;25.43;;
19111;SDS011;9688;51.906;8.376;2023-11-21T08:13:02;58.67;;;25.00;;
19111;SDS011;9688;51.906;8.376;2023-11-21T08:15:49;54.97;;;24.07;;
19111;SDS011;9688;51.906;8.376;2023-11-21T08:18:35;56.00;;;24.87;;
19111;SDS011;9688;51.906;8.376;2023-11-21T08:21:21;50.73;;;24.73;;
19111;SDS011;9688;51.906;8.376;2023-11-21T08:24:09;63.63;;;27.80;;
19111;SDS011;9688;51.906;8.376;2023-11-21T08:26:55;52.83;;;22.23;;
19111;SDS011;9688;51.906;8.376;2023-11-21T08:29:44;47.73;;;21.30;;
19111;SDS011;9688;51.906;8.376;2023-11-21T08:32:30;45.70;;;20.87;;
19111;SDS011;9688;51.906;8.376;2023-11-21T08:35:17;55.00;;;24.50;;
19111;SDS011;9688;51.906;8.376;2023-11-21T08:38:03;54.93;;;23.70;;
19111;SDS011;9688;51.906;8.376;2023-11-21T08:40:49;62.97;;;25.40;;
19111;SDS011;9688;51.906;8.376;2023-11-21T08:43:38;46.20;;;21.07;;
19111;SDS011;9688;51.906;8.376;2023-11-21T08:46:28;49.57;;;22.93;;
19111;SDS011;9688;51.906;8.376;2023-11-21T08:49:21;42.70;;;18.67;;
19111;SDS011;9688;51.906;8.376;2023-11-21T08:52:07;46.47;;;20.77;;
19111;SDS011;9688;51.906;8.376;2023-11-21T08:54:54;47.67;;;21.23;;
19111;SDS011;9688;51.906;8.376;2023-11-21T08:57:43;41.13;;;18.50;;
19111;SDS011;9688;51.906;8.376;2023-11-21T09:00:31;45.83;;;19.73;;
19111;SDS011;9688;51.906;8.376;2023-11-21T09:03:19;35.97;;;18.10;;
19111;SDS011;9688;51.906;8.376;2023-11-21T09:06:05;42.63;;;18.50;;
19111;SDS011;9688;51.906;8.376;2023-11-21T09:08:53;38.73;;;19.37;;
19111;SDS011;9688;51.906;8.376;2023-11-21T09:11:40;35.23;;;17.40;;
19111;SDS011;9688;51.906;8.376;2023-11-21T09:14:25;30.87;;;16.60;;
19111;SDS011;9688;51.906;8.376;2023-11-21T09:17:11;35.00;;;18.47;;
19111;SDS011;9688;51.906;8.376;2023-11-21T09:20:00;36.60;;;18.17;;
19111;SDS011;9688;51.906;8.376;2023-11-21T09:22:48;40.33;;;20.77;;
19111;SDS011;9688;51.906;8.376;2023-11-21T09:25:34;35.70;;;17.23;;
19111;SDS011;9688;51.906;8.376;2023-11-21T09:28:21;42.00;;;18.67;;
19111;SDS011;9688;51.906;8.376;2023-11-21T09:31:07;32.60;;;15.30;;
19111;SDS011;9688;51.906;8.376;2023-11-21T09:33:53;29.23;;;15.23;;
19111;SDS011;9688;51.906;8.376;2023-11-21T09:36:40;31.70;;;16.67;;
19111;SDS011;9688;51.906;8.376;2023-11-21T09:39:27;34.73;;;16.70;;
19111;SDS011;9688;51.906;8.376;2023-11-21T09:42:17;32.17;;;15.53;;
19111;SDS011;9688;51.906;8.376;2023-11-21T09:45:11;37.93;;;16.07;;
19111;SDS011;9688;51.906;8.376;2023-11-21T09:48:04;37.10;;;15.60;;
19111;SDS011;9688;51.906;8.376;2023-11-21T09:50:51;32.20;;;15.47;;
19111;SDS011;9688;51.906;8.376;2023-11-21T09:53:41;34.97;;;15.57;;
19111;SDS011;9688;51.906;8.376;2023-11-21T09:56:31;36.70;;;16.77;;
19111;SDS011;9688;51.906;8.376;2023-11-21T09:59:17;30.17;;;14.77;;
19111;SDS011;9688;51.906;8.376;2023-11-21T10:02:05;34.57;;;15.13;;
19111;SDS011;9688;51.906;8.376;2023-11-21T10:04:56;33.80;;;16.50;;
19111;SDS011;9688;51.906;8.376;2023-11-21T10:07:44;35.33;;;14.43;;
19111;SDS011;9688;51.906;8.376;2023-11-21T10:10:32;33.67;;;14.53;;
19111;SDS011;9688;51.906;8.376;2023-11-21T10:13:30;26.17;;;12.63;;
19111;SDS011;9688;51.906;8.376;2023-11-21T10:16:19;25.47;;;12.37;;
19111;SDS011;9688;51.906;8.376;2023-11-21T10:19:06;22.90;;;11.10;;
19111;SDS011;9688;51.906;8.376;2023-11-21T10:21:55;26.23;;;11.43;;
19111;SDS011;9688;51.906;8.376;2023-11-21T10:24:48;21.43;;;10.40;;
19111;SDS011;9688;51.906;8.376;2023-11-21T10:27:36;21.60;;;9.53;;
19111;SDS011;9688;51.906;8.376;2023-11-21T10:30:24;19.57;;;9.90;;
19111;SDS011;9688;51.906;8.376;2023-11-21T10:33:13;18.63;;;8.73;;
19111;SDS011;9688;51.906;8.376;2023-11-21T10:35:59;14.63;;;8.47;;
19111;SDS011;9688;51.906;8.376;2023-11-21T10:38:46;13.03;;;8.27;;
19111;SDS011;9688;51.906;8.376;2023-11-21T10:41:37;12.80;;;7.90;;
19111;SDS011;9688;51.906;8.376;2023-11-21T10:44:25;10.27;;;6.97;;
19111;SDS011;9688;51.906;8.376;2023-11-21T10:47:13;12.93;;;8.17;;
19111;SDS011;9688;51.906;8.376;2023-11-21T10:50:04;12.20;;;7.30;;
19111;SDS011;9688;51.906;8.376;2023-11-21T10:52:52;11.83;;;7.53;;
19111;SDS011;9688;51.906;8.376;2023-11-21T10:55:39;9.03;;;6.17;;
19111;SDS011;9688;51.906;8.376;2023-11-21T10:58:25;11.93;;;7.60;;
19111;SDS011;9688;51.906;8.376;2023-11-21T11:01:15;9.57;;;6.50;;
19111;SDS011;9688;51.906;8.376;2023-11-21T11:04:08;15.37;;;7.00;;
19111;SDS011;9688;51.906;8.376;2023-11-21T11:07:01;12.10;;;6.93;;
19111;SDS011;9688;51.906;8.376;2023-11-21T11:09:48;12.10;;;7.17;;
19111;SDS011;9688;51.906;8.376;2023-11-21T11:12:36;11.93;;;7.07;;
19111;SDS011;9688;51.906;8.376;2023-11-21T11:15:22;11.00;;;6.67;;
19111;SDS011;9688;51.906;8.376;2023-11-21T11:18:11;12.33;;;7.10;;
19111;SDS011;9688;51.906;8.376;2023-11-21T11:21:00;10.60;;;6.53;;
19111;SDS011;9688;51.906;8.376;2023-11-21T11:23:58;10.40;;;7.00;;
19111;SDS011;9688;51.906;8.376;2023-11-21T11:26:58;12.90;;;7.70;;
19111;SDS011;9688;51.906;8.376;2023-11-21T11:29:58;14.63;;;7.70;;
19111;SDS011;9688;51.906;8.376;2023-11-21T11:32:55;11.60;;;6.60;;
19111;SDS011;9688;51.906;8.376;2023-11-21T11:36:04;9.27;;;6.43;;
19111;SDS011;9688;51.906;8.376;2023-11-21T11:38:54;9.57;;;6.23;;
19111;SDS011;9688;51.906;8.376;2023-11-21T11:41:42;7.47;;;5.00;;
19111;SDS011;9688;51.906;8.376;2023-11-21T11:47:41;9.27;;;5.63;;
19111;SDS011;9688;51.906;8.376;2023-11-21T11:50:28;7.13;;;5.43;;
19111;SDS011;9688;51.906;8.376;2023-11-21T11:53:22;9.07;;;5.27;;
19111;SDS011;9688;51.906;8.376;2023-11-21T11:56:19;8.13;;;5.07;;
19111;SDS011;9688;51.906;8.376;2023-11-21T11:59:10;7.57;;;5.23;;
19111;SDS011;9688;51.906;8.376;2023-11-21T12:01:59;7.80;;;4.97;;
19111;SDS011;9688;51.906;8.376;2023-11-21T12:04:45;8.53;;;5.30;;
19111;SDS011;9688;51.906;8.376;2023-11-21T12:07:38;7.40;;;5.07;;
19111;SDS011;9688;51.906;8.376;2023-11-21T12:10:30;7.17;;;5.07;;
19111;SDS011;9688;51.906;8.376;2023-11-21T12:13:19;11.07;;;5.90;;
19111;SDS011;9688;51.906;8.376;2023-11-21T12:16:08;8.83;;;5.73;;
19111;SDS011;9688;51.906;8.376;2023-11-21T12:18:55;7.17;;;5.43;;
19111;SDS011;9688;51.906;8.376;2023-11-21T12:21:41;9.00;;;6.57;;
19111;SDS011;9688;51.906;8.376;2023-11-21T12:24:29;15.80;;;7.07;;
19111;SDS011;9688;51.906;8.376;2023-11-21T12:27:18;10.83;;;7.13;;
19111;SDS011;9688;51.906;8.376;2023-11-21T12:30:06;13.30;;;7.80;;
19111;SDS011;9688;51.906;8.376;2023-11-21T12:32:58;14.67;;;8.30;;
19111;SDS011;9688;51.906;8.376;2023-11-21T12:35:47;9.73;;;7.00;;
19111;SDS011;9688;51.906;8.376;2023-11-21T12:38:37;12.83;;;7.57;;
19111;SDS011;9688;51.906;8.376;2023-11-21T12:41:26;15.40;;;7.63;;
19111;SDS011;9688;51.906;8.376;2023-11-21T12:44:14;14.13;;;8.07;;
19111;SDS011;9688;51.906;8.376;2023-11-21T12:47:01;13.47;;;7.67;;
19111;SDS011;9688;51.906;8.376;2023-11-21T12:49:48;13.80;;;8.33;;
19111;SDS011;9688;51.906;8.376;2023-11-21T12:52:33;15.37;;;8.30;;
19111;SDS011;9688;51.906;8.376;2023-11-21T12:55:20;12.57;;;7.33;;
19111;SDS011;9688;51.906;8.376;2023-11-21T12:58:07;14.77;;;8.60;;
19111;SDS011;9688;51.906;8.376;2023-11-21T13:00:56;14.33;;;8.43;;
19111;SDS011;9688;51.906;8.376;2023-11-21T13:03:46;16.50;;;8.27;;
19111;SDS011;9688;51.906;8.376;2023-11-21T13:06:35;13.30;;;8.37;;
19111;SDS011;9688;51.906;8.376;2023-11-21T13:09:25;12.67;;;8.27;;
19111;SDS011;9688;51.906;8.376;2023-11-21T13:12:14;13.27;;;8.33;;
19111;SDS011;9688;51.906;8.376;2023-11-21T13:15:03;12.13;;;8.20;;
19111;SDS011;9688;51.906;8.376;2023-11-21T13:17:52;11.30;;;7.63;;
19111;SDS011;9688;51.906;8.376;2023-11-21T13:20:40;12.67;;;8.43;;
19111;SDS011;9688;51.906;8.376;2023-11-21T13:23:26;14.67;;;8.23;;
19111;SDS011;9688;51.906;8.376;2023-11-21T13:26:13;18.33;;;10.30;;
19111;SDS011;9688;51.906;8.376;2023-11-21T13:28:59;17.13;;;7.93;;
19111;SDS011;9688;51.906;8.376;2023-11-21T13:31:49;14.20;;;8.77;;
19111;SDS011;9688;51.906;8.376;2023-11-21T13:34:38;16.90;;;9.27;;
19111;SDS011;9688;51.906;8.376;2023-11-21T13:37:30;10.70;;;7.73;;
19111;SDS011;9688;51.906;8.376;2023-11-21T13:40:20;11.43;;;7.27;;
19111;SDS011;9688;51.906;8.376;2023-11-21T13:43:11;10.80;;;6.90;;
19111;SDS011;9688;51.906;8.376;2023-11-21T13:45:58;21.73;;;9.37;;
19111;SDS011;9688;51.906;8.376;2023-11-21T13:48:54;9.97;;;5.90;;
19111;SDS011;9688;51.906;8.376;2023-11-21T13:51:43;11.30;;;6.20;;
19111;SDS011;9688;51.906;8.376;2023-11-21T13:54:32;9.13;;;6.87;;
19111;SDS011;9688;51.906;8.376;2023-11-21T13:57:18;14.87;;;6.87;;
19111;SDS011;9688;51.906;8.376;2023-11-21T14:00:06;9.13;;;6.73;;
19111;SDS011;9688;51.906;8.376;2023-11-21T14:02:55;9.83;;;6.23;;
19111;SDS011;9688;51.906;8.376;2023-11-21T14:05:44;9.17;;;6.53;;
19111;SDS011;9688;51.906;8.376;2023-11-21T14:08:37;7.60;;;5.53;;
19111;SDS011;9688;51.906;8.376;2023-11-21T14:11:24;8.90;;;5.90;;
19111;SDS011;9688;51.906;8.376;2023-11-21T14:14:12;9.90;;;6.50;;
19111;SDS011;9688;51.906;8.376;2023-11-21T14:16:58;7.90;;;5.73;;
19111;SDS011;9688;51.906;8.376;2023-11-21T14:19:45;7.67;;;5.60;;
19111;SDS011;9688;51.906;8.376;2023-11-21T14:22:33;7.50;;;5.33;;
19111;SDS011;9688;51.906;8.376;2023-11-21T14:25:20;6.67;;;5.00;;
19111;SDS011;9688;51.906;8.376;2023-11-21T14:28:06;11.80;;;6.00;;
19111;SDS011;9688;51.906;8.376;2023-11-21T14:30:52;11.03;;;6.33;;
19111;SDS011;9688;51.906;8.376;2023-11-21T14:33:38;11.23;;;5.60;;
19111;SDS011;9688;51.906;8.376;2023-11-21T14:36:25;12.30;;;6.50;;
19111;SDS011;9688;51.906;8.376;2023-11-21T14:39:11;8.43;;;5.57;;
19111;SDS011;9688;51.906;8.376;2023-11-21T14:42:09;14.67;;;7.10;;
19111;SDS011;9688;51.906;8.376;2023-11-21T14:44:55;8.10;;;5.97;;
19111;SDS011;9688;51.906;8.376;2023-11-21T14:47:48;9.13;;;6.13;;
19111;SDS011;9688;51.906;8.376;2023-11-21T14:50:42;8.73;;;6.13;;
19111;SDS011;9688;51.906;8.376;2023-11-21T14:53:35;9.50;;;5.77;;
19111;SDS011;9688;51.906;8.376;2023-11-21T14:56:37;7.13;;;6.03;;
19111;SDS011;9688;51.906;8.376;2023-11-21T14:59:29;6.67;;;5.50;;
19111;SDS011;9688;51.906;8.376;2023-11-21T15:02:16;8.07;;;5.20;;
19111;SDS011;9688;51.906;8.376;2023-11-21T15:05:03;7.37;;;5.00;;
19111;SDS011;9688;51.906;8.376;2023-11-21T15:07:56;7.43;;;5.17;;
19111;SDS011;9688;51.906;8.376;2023-11-21T15:10:57;6.30;;;5.07;;
19111;SDS011;9688;51.906;8.376;2023-11-21T15:13:51;8.07;;;5.23;;
19111;SDS011;9688;51.906;8.376;2023-11-21T15:16:41;7.23;;;5.20;;
19111;SDS011;9688;51.906;8.376;2023-11-21T15:19:34;7.50;;;5.43;;
19111;SDS011;9688;51.906;8.376;2023-11-21T15:22:20;6.93;;;4.97;;
19111;SDS011;9688;51.906;8.376;2023-11-21T15:25:06;6.93;;;4.60;;
19111;SDS011;9688;51.906;8.376;2023-11-21T15:27:55;8.40;;;5.00;;
19111;SDS011;9688;51.906;8.376;2023-11-21T15:30:41;6.63;;;5.27;;
19111;SDS011;9688;51.906;8.376;2023-11-21T15:33:32;5.93;;;4.57;;
19111;SDS011;9688;51.906;8.376;2023-11-21T15:36:23;7.20;;;5.60;;
19111;SDS011;9688;51.906;8.376;2023-11-21T15:39:11;7.77;;;5.13;;
19111;SDS011;9688;51.906;8.376;2023-11-21T15:41:58;9.13;;;5.13;;
19111;SDS011;9688;51.906;8.376;2023-11-21T15:44:45;7.00;;;5.37;;
19111;SDS011;9688;51.906;8.376;2023-11-21T15:47:31;7.43;;;5.50;;
19111;SDS011;9688;51.906;8.376;2023-11-21T15:50:21;9.23;;;5.67;;
19111;SDS011;9688;51.906;8.376;2023-11-21T15:53:18;7.30;;;5.70;;
19111;SDS011;9688;51.906;8.376;2023-11-21T15:56:24;8.37;;;6.20;;
19111;SDS011;9688;51.906;8.376;2023-11-21T15:59:10;9.53;;;6.30;;
19111;SDS011;9688;51.906;8.376;2023-11-21T16:01:57;10.10;;;6.63;;
19111;SDS011;9688;51.906;8.376;2023-11-21T16:04:45;9.37;;;6.63;;
19111;SDS011;9688;51.906;8.376;2023-11-21T16:07:35;8.43;;;5.77;;
19111;SDS011;9688;51.906;8.376;2023-11-21T16:10:25;7.53;;;5.97;;
19111;SDS011;9688;51.906;8.376;2023-11-21T16:13:11;9.07;;;6.07;;
19111;SDS011;9688;51.906;8.376;2023-11-21T16:15:58;8.93;;;6.00;;
19111;SDS011;9688;51.906;8.376;2023-11-21T16:18:45;10.27;;;5.70;;
19111;SDS011;9688;51.906;8.376;2023-11-21T16:21:32;9.60;;;6.07;;
19111;SDS011;9688;51.906;8.376;2023-11-21T16:24:26;11.43;;;7.63;;
19111;SDS011;9688;51.906;8.376;2023-11-21T16:27:13;14.93;;;7.70;;
19111;SDS011;9688;51.906;8.376;2023-11-21T16:30:03;11.37;;;6.40;;
19111;SDS011;9688;51.906;8.376;2023-11-21T16:32:51;9.83;;;5.73;;
19111;SDS011;9688;51.906;8.376;2023-11-21T16:35:38;12.13;;;5.87;;
19111;SDS011;9688;51.906;8.376;2023-11-21T16:38:25;10.37;;;6.67;;
19111;SDS011;9688;51.906;8.376;2023-11-21T16:41:13;9.57;;;6.23;;
19111;SDS011;9688;51.906;8.376;2023-11-21T16:44:01;9.00;;;5.80;;
19111;SDS011;9688;51.906;8.376;2023-11-21T16:46:47;7.60;;;5.40;;
19111;SDS011;9688;51.906;8.376;2023-11-21T16:49:37;8.80;;;6.30;;